Time;durP1;ratioP1;P1;durP2;ratioP2;P2;SDS_P1;SDS_P2;PMS_P1;PMS_P2;Temp;Humidity;BMP_temperature;BMP_pressure;BME280_temperature;BME280_humidity;BME280_pressure;Samples;Min_cycle;Max_cycle;Signal;HPM_P1;HPM_P2
2023/12/14 00:01:14;;;;;;;36.40;9.60;;;;;;;-2.35;100.00;101314.75;106147;1288;58368;-82
2023/12/14 00:03:41;;;;;;;30.80;9.10;;;;;;;-2.45;100.00;101308.20;106395;1288;58324;-82
2023/12/14 00:06:11;;;;;;;32.10;10.10;;;;;;;-2.46;100.00;101301.23;106389;1288;58392;-82
2023/12/14 00:08:36;;;;;;;40.90;10.50;;;;;;;-2.42;100.00;101298.36;106195;1288;74886;-82
2023/12/14 00:11:06;;;;;;;43.00;10.90;;;;;;;-2.38;100.00;101296.54;106407;1288;58740;-82
2023/12/14 00:13:32;;;;;;;43.00;10.80;;;;;;;-2.39;100.00;101283.29;106270;1289;61812;-82
2023/12/14 00:15:58;;;;;;;41.30;11.00;;;;;;;-2.40;100.00;101284.27;106384;1288;58467;-82
2023/12/14 00:18:23;;;;;;;47.80;10.40;;;;;;;-2.40;100.00;101284.54;106357;1288;58235;-82
2023/12/14 00:20:49;;;;;;;40.70;10.50;;;;;;;-2.36;100.00;101276.31;106590;1285;58274;-82
2023/12/14 00:23:14;;;;;;;32.90;10.20;;;;;;;-2.39;100.00;101277.32;106703;1285;59688;-82
2023/12/14 00:25:40;;;;;;;49.70;11.90;;;;;;;-2.38;100.00;101276.75;106461;1285;58192;-82
2023/12/14 00:28:06;;;;;;;33.30;10.90;;;;;;;-2.38;100.00;101276.30;106740;1285;58266;-82
2023/12/14 00:30:31;;;;;;;29.80;9.70;;;;;;;-2.39;100.00;101274.70;106711;1286;58564;-82
2023/12/14 00:32:57;;;;;;;28.10;9.90;;;;;;;-2.36;100.00;101255.56;106464;1285;59072;-82
2023/12/14 00:35:23;;;;;;;41.60;13.30;;;;;;;-2.32;100.00;101244.98;106676;1285;58304;-82
2023/12/14 00:37:48;;;;;;;42.00;10.40;;;;;;;-2.29;100.00;101241.44;106346;1286;58743;-82
2023/12/14 00:40:14;;;;;;;34.60;10.70;;;;;;;-2.36;100.00;101233.01;106743;1285;74276;-82
2023/12/14 00:42:39;;;;;;;38.90;10.40;;;;;;;-2.41;100.00;101232.15;106604;1285;58285;-82
2023/12/14 00:45:05;;;;;;;43.10;11.20;;;;;;;-2.39;100.00;101239.13;106669;1285;58326;-82
2023/12/14 00:47:31;;;;;;;35.50;11.40;;;;;;;-2.44;100.00;101236.89;106722;1285;58257;-82
2023/12/14 00:49:56;;;;;;;38.90;11.10;;;;;;;-2.50;100.00;101227.60;106708;1285;58266;-82
2023/12/14 00:52:22;;;;;;;38.80;11.40;;;;;;;-2.47;100.00;101228.61;106501;1286;58543;-82
2023/12/14 00:54:48;;;;;;;52.40;11.20;;;;;;;-2.54;100.00;101232.83;106728;1285;58517;-82
2023/12/14 00:57:13;;;;;;;46.90;10.60;;;;;;;-2.55;100.00;101233.97;106772;1285;58375;-82
2023/12/14 00:59:40;;;;;;;38.80;10.80;;;;;;;-2.62;100.00;101239.42;106771;1286;58293;-82
2023/12/14 01:02:06;;;;;;;34.30;10.50;;;;;;;-2.57;100.00;101241.21;106829;1286;58271;-82
2023/12/14 01:04:31;;;;;;;34.80;9.80;;;;;;;-2.50;100.00;101244.52;106598;1286;58193;-83
2023/12/14 01:06:57;;;;;;;38.80;10.60;;;;;;;-2.53;100.00;101246.22;106827;1285;58198;-82
2023/12/14 01:09:23;;;;;;;33.10;9.70;;;;;;;-2.53;100.00;101247.08;106825;1286;58196;-82
2023/12/14 01:11:49;;;;;;;31.40;9.40;;;;;;;-2.58;100.00;101253.05;106828;1285;74214;-82
2023/12/14 01:14:14;;;;;;;30.60;9.60;;;;;;;-2.54;100.00;101248.92;106656;1286;58274;-82
2023/12/14 01:16:40;;;;;;;30.60;9.70;;;;;;;-2.55;100.00;101246.64;106699;1286;58535;-82
2023/12/14 01:19:06;;;;;;;26.30;8.20;;;;;;;-2.52;100.00;101249.79;106872;1286;58207;-82
2023/12/14 01:21:32;;;;;;;25.50;8.60;;;;;;;-2.53;100.00;101251.34;106511;1286;58396;-82
2023/12/14 01:23:58;;;;;;;29.50;8.90;;;;;;;-2.51;100.00;101254.34;106810;1285;58331;-82
2023/12/14 01:26:23;;;;;;;33.10;9.00;;;;;;;-2.52;100.00;101248.99;106821;1285;58322;-82
2023/12/14 01:28:49;;;;;;;38.40;9.30;;;;;;;-2.46;100.00;101245.22;106713;1286;58550;-82
2023/12/14 01:31:15;;;;;;;35.70;9.80;;;;;;;-2.46;100.00;101247.58;106807;1288;58518;-82
2023/12/14 01:33:40;;;;;;;38.10;9.70;;;;;;;-2.46;100.00;101243.08;106796;1285;58291;-82
2023/12/14 01:36:06;;;;;;;38.60;9.60;;;;;;;-2.56;100.00;101240.03;106806;1286;58262;-82
2023/12/14 01:38:31;;;;;;;39.40;9.30;;;;;;;-2.57;100.00;101238.41;106556;1285;58475;-82
2023/12/14 01:40:59;;;;;;;29.90;9.00;;;;;;;-2.51;100.00;101247.45;106811;1285;73695;-82
2023/12/14 01:43:24;;;;;;;33.60;9.70;;;;;;;-2.55;100.00;101242.61;106805;1286;74543;-82
2023/12/14 01:45:50;;;;;;;33.20;9.70;;;;;;;-2.53;100.00;101230.95;106798;1285;58227;-82
2023/12/14 01:48:15;;;;;;;35.80;9.80;;;;;;;-2.53;100.00;101226.20;106840;1286;58516;-82
2023/12/14 01:50:41;;;;;;;30.10;8.50;;;;;;;-2.58;100.00;101223.21;106839;1286;58580;-82
2023/12/14 01:53:06;;;;;;;39.50;10.20;;;;;;;-2.56;100.00;101210.15;106898;1285;58725;-82
2023/12/14 01:55:32;;;;;;;36.70;9.70;;;;;;;-2.53;100.00;101204.70;106495;1288;72445;-82
2023/12/14 01:57:58;;;;;;;41.00;10.30;;;;;;;-2.47;100.00;101204.30;106850;1286;58264;-82
2023/12/14 02:00:44;;;;;;;36.70;9.70;;;;;;;-2.50;100.00;101212.17;106832;1285;58388;-82
2023/12/14 02:03:10;;;;;;;35.50;11.10;;;;;;;-2.61;100.00;101206.58;106820;1286;74526;-82
2023/12/14 02:05:36;;;;;;;37.70;10.10;;;;;;;-2.60;100.00;101198.04;106438;1286;58343;-82
2023/12/14 02:08:02;;;;;;;38.60;9.90;;;;;;;-2.57;100.00;101197.73;106783;1285;58895;-82
2023/12/14 02:10:27;;;;;;;34.00;9.90;;;;;;;-2.62;100.00;101192.62;106352;1285;59128;-82
2023/12/14 02:12:53;;;;;;;40.90;10.80;;;;;;;-2.61;100.00;101193.25;106858;1285;58287;-82
2023/12/14 02:15:18;;;;;;;34.10;10.30;;;;;;;-2.61;100.00;101190.59;106394;1291;58326;-82
2023/12/14 02:17:44;;;;;;;52.90;10.60;;;;;;;-2.64;100.00;101194.82;106817;1285;58515;-82
2023/12/14 02:20:10;;;;;;;36.90;9.90;;;;;;;-2.66;100.00;101205.59;106842;1285;58250;-82
2023/12/14 02:22:50;;;;;;;41.30;10.10;;;;;;;-2.60;100.00;101214.27;106821;1285;58239;-82
2023/12/14 02:25:15;;;;;;;42.00;9.80;;;;;;;-2.62;100.00;101213.53;106801;1285;74722;-82
2023/12/14 02:27:41;;;;;;;33.80;10.30;;;;;;;-2.58;100.00;101223.94;106877;1286;58825;-82
2023/12/14 02:30:07;;;;;;;35.50;10.30;;;;;;;-2.58;100.00;101214.87;106862;1285;58570;-82
2023/12/14 02:32:33;;;;;;;38.50;9.70;;;;;;;-2.66;100.00;101199.94;106877;1286;58351;-82
2023/12/14 02:34:58;;;;;;;38.30;10.20;;;;;;;-2.67;100.00;101205.33;106391;1286;58320;-82
2023/12/14 02:37:24;;;;;;;37.60;9.90;;;;;;;-2.55;100.00;101217.98;106892;1285;58296;-82
2023/12/14 02:39:49;;;;;;;33.50;9.50;;;;;;;-2.54;100.00;101212.70;106832;1285;73194;-82
2023/12/14 02:42:15;;;;;;;32.00;9.60;;;;;;;-2.58;100.00;101205.38;106789;1286;58203;-82
2023/12/14 02:44:41;;;;;;;36.70;10.00;;;;;;;-2.54;100.00;101193.96;106875;1286;58573;-82
2023/12/14 02:47:06;;;;;;;32.30;9.60;;;;;;;-2.56;100.00;101199.17;106820;1286;58286;-82
2023/12/14 02:49:32;;;;;;;36.00;8.50;;;;;;;-2.60;100.00;101206.48;106831;1285;58321;-82
2023/12/14 02:51:58;;;;;;;39.20;9.40;;;;;;;-2.66;100.00;101207.88;106561;1286;63104;-82
2023/12/14 02:54:23;;;;;;;43.80;8.60;;;;;;;-2.63;100.00;101209.27;106853;1285;58642;-82
2023/12/14 02:56:49;;;;;;;27.70;8.10;;;;;;;-2.55;100.00;101199.48;106798;1286;58379;-82
2023/12/14 02:59:14;;;;;;;35.80;8.90;;;;;;;-2.55;100.00;101190.45;106549;1286;58360;-82
2023/12/14 03:01:40;;;;;;;35.30;9.00;;;;;;;-2.62;100.00;101186.46;106852;1285;58268;-82
2023/12/14 03:04:06;;;;;;;38.50;8.10;;;;;;;-2.62;100.00;101182.58;106822;1285;62158;-82
2023/12/14 03:06:32;;;;;;;34.30;8.10;;;;;;;-2.59;100.00;101187.10;106552;1285;73626;-82
2023/12/14 03:08:58;;;;;;;38.10;8.40;;;;;;;-2.57;100.00;101180.34;106776;1285;58529;-82
2023/12/14 03:11:24;;;;;;;28.00;8.30;;;;;;;-2.65;100.00;101178.37;106421;1286;58749;-82
2023/12/14 03:13:50;;;;;;;29.50;8.90;;;;;;;-2.60;100.00;101175.59;106810;1285;58393;-82
2023/12/14 03:16:16;;;;;;;28.70;8.50;;;;;;;-2.60;100.00;101179.28;106772;1286;58257;-82
2023/12/14 03:18:42;;;;;;;28.70;8.20;;;;;;;-2.59;100.00;101183.86;106866;1285;58268;-82
2023/12/14 03:21:09;;;;;;;33.80;8.80;;;;;;;-2.55;100.00;101179.56;106802;1289;58319;-82
2023/12/14 03:23:35;;;;;;;35.20;8.30;;;;;;;-2.61;100.00;101178.05;106548;1286;58306;-82
2023/12/14 03:26:01;;;;;;;33.70;8.70;;;;;;;-2.67;100.00;101177.04;106864;1286;58395;-82
2023/12/14 03:28:27;;;;;;;36.90;8.70;;;;;;;-2.73;100.00;101166.00;106814;1285;72686;-82
2023/12/14 03:30:53;;;;;;;38.80;8.70;;;;;;;-2.72;100.00;101159.06;106811;1285;58301;-82
2023/12/14 03:33:19;;;;;;;32.20;8.20;;;;;;;-2.74;100.00;101149.09;106717;1286;58287;-82
2023/12/14 03:35:46;;;;;;;32.40;8.80;;;;;;;-2.77;100.00;101140.04;106837;1286;58528;-82
2023/12/14 03:38:13;;;;;;;32.40;9.10;;;;;;;-2.68;100.00;101133.81;106607;1284;58354;-82
2023/12/14 03:40:39;;;;;;;36.00;8.90;;;;;;;-2.61;100.00;101132.70;106832;1286;58187;-82
2023/12/14 03:43:05;;;;;;;36.40;9.20;;;;;;;-2.65;100.00;101126.66;106330;1285;58314;-82
2023/12/14 03:45:30;;;;;;;37.10;9.50;;;;;;;-2.68;100.00;101120.79;106801;1285;59109;-82
2023/12/14 03:47:56;;;;;;;26.80;7.60;;;;;;;-2.68;100.00;101121.65;106822;1284;58519;-82
2023/12/14 03:50:22;;;;;;;28.00;8.50;;;;;;;-2.75;100.00;101120.70;106469;1285;58376;-82
2023/12/14 03:52:48;;;;;;;37.20;8.90;;;;;;;-2.76;100.00;101119.02;106884;1286;58211;-82
2023/12/14 03:55:15;;;;;;;33.10;9.30;;;;;;;-2.83;100.00;101118.13;106810;1285;73326;-82
2023/12/14 03:57:41;;;;;;;34.00;9.00;;;;;;;-2.90;100.00;101121.49;106806;1286;62997;-82
2023/12/14 04:00:10;;;;;;;30.10;8.90;;;;;;;-2.83;100.00;101113.78;106856;1285;58158;-82
2023/12/14 04:02:36;;;;;;;34.20;8.30;;;;;;;-2.81;100.00;101120.60;106823;1285;73651;-82
2023/12/14 04:05:01;;;;;;;27.90;8.10;;;;;;;-2.76;100.00;101134.30;106551;1286;58314;-82
2023/12/14 04:07:29;;;;;;;26.80;8.50;;;;;;;-2.84;100.00;101129.83;106840;1285;58599;-82
2023/12/14 04:09:55;;;;;;;37.30;8.80;;;;;;;-2.82;100.00;101128.77;106823;1285;58203;-82
2023/12/14 04:12:21;;;;;;;31.90;8.70;;;;;;;-2.80;100.00;101134.19;106827;1285;58195;-82
2023/12/14 04:14:47;;;;;;;32.60;8.50;;;;;;;-2.79;100.00;101130.94;106831;1289;58637;-82
2023/12/14 04:17:12;;;;;;;35.40;9.60;;;;;;;-2.74;100.00;101128.81;106823;1285;58321;-82
2023/12/14 04:19:39;;;;;;;32.50;8.70;;;;;;;-2.71;100.00;101134.29;106819;1285;58315;-82
2023/12/14 04:22:05;;;;;;;34.60;8.90;;;;;;;-2.65;100.00;101149.19;106493;1286;58457;-82
2023/12/14 04:24:30;;;;;;;29.40;8.50;;;;;;;-2.64;100.00;101150.23;106885;1285;58299;-82
2023/12/14 04:26:56;;;;;;;27.80;8.70;;;;;;;-2.65;100.00;101147.58;106819;1285;74603;-82
2023/12/14 04:29:21;;;;;;;31.70;8.00;;;;;;;-2.60;100.00;101142.97;106836;1286;58228;-82
2023/12/14 04:31:48;;;;;;;34.40;9.40;;;;;;;-2.63;100.00;101141.08;106820;1285;58555;-82
2023/12/14 04:34:15;;;;;;;30.40;8.90;;;;;;;-2.68;100.00;101143.48;106811;1286;58233;-82
2023/12/14 04:36:45;;;;;;;30.50;8.40;;;;;;;-2.70;100.00;101127.91;106819;1285;58374;-82
2023/12/14 04:39:11;;;;;;;32.90;8.70;;;;;;;-2.71;100.00;101119.39;106838;1284;74419;-82
2023/12/14 04:41:37;;;;;;;30.00;9.10;;;;;;;-2.67;100.00;101120.23;106267;1286;58726;-82
2023/12/14 04:44:02;;;;;;;34.60;9.30;;;;;;;-2.72;100.00;101119.82;106508;1286;58358;-82
2023/12/14 04:46:28;;;;;;;27.30;8.90;;;;;;;-2.69;100.00;101118.08;106841;1285;58248;-82
2023/12/14 04:48:54;;;;;;;26.30;8.70;;;;;;;-2.70;100.00;101110.70;106821;1285;58588;-82
2023/12/14 04:51:20;;;;;;;31.10;9.10;;;;;;;-2.74;100.00;101101.89;106789;1285;58291;-82
2023/12/14 04:53:46;;;;;;;25.60;9.20;;;;;;;-2.62;100.00;101105.94;106378;1288;58436;-82
2023/12/14 04:56:12;;;;;;;27.20;8.80;;;;;;;-2.56;100.00;101106.75;106378;1288;60803;-82
2023/12/14 04:58:42;;;;;;;32.30;9.50;;;;;;;-2.64;100.00;101094.35;106410;1288;58304;-82
2023/12/14 05:01:08;;;;;;;26.10;9.20;;;;;;;-2.63;100.00;101088.98;106242;1288;74240;-82
2023/12/14 05:03:35;;;;;;;29.80;9.30;;;;;;;-2.61;100.00;101087.73;106291;1289;58555;-83
2023/12/14 05:06:01;;;;;;;32.60;9.10;;;;;;;-2.69;100.00;101089.59;106226;1288;58332;-82
2023/12/14 05:08:26;;;;;;;32.20;8.20;;;;;;;-2.65;100.00;101091.88;106395;1288;58416;-82
2023/12/14 05:10:52;;;;;;;28.70;9.70;;;;;;;-2.66;100.00;101087.91;106382;1288;58609;-82
2023/12/14 05:13:17;;;;;;;26.70;9.70;;;;;;;-2.66;100.00;101092.84;106154;1288;58577;-82
2023/12/14 05:15:43;;;;;;;34.30;8.90;;;;;;;-2.69;100.00;101091.05;106392;1288;59786;-82
2023/12/14 05:18:09;;;;;;;36.80;9.30;;;;;;;-2.67;100.00;101088.24;106376;1288;60013;-82
2023/12/14 05:20:35;;;;;;;32.50;9.20;;;;;;;-2.66;100.00;101091.09;106288;1289;58342;-82
2023/12/14 05:23:01;;;;;;;28.90;9.40;;;;;;;-2.58;100.00;101089.29;106411;1288;58582;-82
2023/12/14 05:25:27;;;;;;;30.50;9.10;;;;;;;-2.61;100.00;101077.52;106603;1286;58257;-82
2023/12/14 05:27:52;;;;;;;29.30;9.40;;;;;;;-2.60;100.00;101080.58;106610;1285;58697;-82
2023/12/14 05:30:18;;;;;;;25.40;10.30;;;;;;;-2.60;100.00;101072.80;106753;1285;58343;-82
2023/12/14 05:32:44;;;;;;;31.30;10.50;;;;;;;-2.59;100.00;101076.79;106773;1285;58254;-82
2023/12/14 05:35:10;;;;;;;38.50;10.60;;;;;;;-2.60;100.00;101080.75;106736;1285;73602;-82
2023/12/14 05:37:35;;;;;;;35.20;10.20;;;;;;;-2.58;100.00;101087.02;106742;1285;58999;-82
2023/12/14 05:40:02;;;;;;;38.00;10.80;;;;;;;-2.56;100.00;101091.38;106773;1285;58229;-82
2023/12/14 05:42:28;;;;;;;32.20;9.10;;;;;;;-2.53;100.00;101096.41;106728;1285;58207;-83
2023/12/14 05:44:54;;;;;;;36.50;10.20;;;;;;;-2.43;100.00;101094.30;106696;1286;58497;-82
2023/12/14 05:47:19;;;;;;;35.40;10.20;;;;;;;-2.38;100.00;101101.27;106738;1285;58357;-82
2023/12/14 05:49:45;;;;;;;35.70;10.00;;;;;;;-2.44;100.00;101095.09;106768;1285;58488;-82
2023/12/14 05:52:11;;;;;;;31.70;11.10;;;;;;;-2.45;100.00;101089.91;106420;1285;73525;-82
2023/12/14 05:54:37;;;;;;;27.10;9.50;;;;;;;-2.43;100.00;101094.45;106370;1285;58391;-82
2023/12/14 05:57:04;;;;;;;31.40;10.10;;;;;;;-2.40;100.00;101093.44;106360;1285;58542;-82
2023/12/14 05:59:30;;;;;;;36.60;10.50;;;;;;;-2.37;100.00;101092.16;106755;1285;58206;-82
2023/12/14 06:01:59;;;;;;;28.70;10.10;;;;;;;-2.38;100.00;101101.64;106743;1286;58277;-82
2023/12/14 06:04:26;;;;;;;31.90;10.20;;;;;;;-2.39;100.00;101094.70;106738;1285;74539;-82
2023/12/14 06:06:52;;;;;;;31.20;9.90;;;;;;;-2.40;100.00;101090.02;106747;1285;74388;-82
2023/12/14 06:09:21;;;;;;;27.50;9.10;;;;;;;-2.33;100.00;101082.27;106689;1285;58270;-82
2023/12/14 06:11:47;;;;;;;29.70;9.50;;;;;;;-2.44;100.00;101096.09;106380;1285;425635;-82
2023/12/14 06:14:13;;;;;;;33.50;9.70;;;;;;;-2.35;100.00;101089.86;106482;1286;58309;-82
2023/12/14 06:16:38;;;;;;;43.10;10.60;;;;;;;-2.29;100.00;101089.77;106713;1285;58239;-82
2023/12/14 06:19:04;;;;;;;34.40;10.90;;;;;;;-2.21;100.00;101089.24;106703;1285;58361;-82
2023/12/14 06:21:30;;;;;;;28.60;10.10;;;;;;;-2.25;100.00;101093.44;106592;1285;58264;-82
2023/12/14 06:23:57;;;;;;;37.50;10.90;;;;;;;-2.22;100.00;101096.83;106741;1285;58217;-82
2023/12/14 06:26:23;;;;;;;31.40;10.40;;;;;;;-2.21;100.00;101094.05;106663;1285;74531;-82
2023/12/14 06:28:48;;;;;;;33.20;10.50;;;;;;;-2.22;100.00;101098.05;106716;1285;58255;-82
2023/12/14 06:31:15;;;;;;;30.20;10.60;;;;;;;-2.19;100.00;101097.66;106727;1287;58233;-82
2023/12/14 06:33:41;;;;;;;28.50;10.30;;;;;;;-2.13;100.00;101092.98;106687;1285;58474;-82
2023/12/14 06:36:08;;;;;;;35.00;10.30;;;;;;;-2.20;100.00;101088.30;106378;1285;59159;-82
2023/12/14 06:38:34;;;;;;;32.20;9.80;;;;;;;-2.16;100.00;101084.45;106377;1286;58313;-82
2023/12/14 06:41:02;;;;;;;32.00;11.10;;;;;;;-2.14;100.00;101076.05;106722;1285;58390;-81
2023/12/14 06:43:27;;;;;;;39.30;10.30;;;;;;;-2.17;100.00;101077.08;106731;1285;58290;-82
2023/12/14 06:45:53;;;;;;;37.40;11.10;;;;;;;-2.14;100.00;101072.89;106402;1285;58414;-82
2023/12/14 06:48:19;;;;;;;32.60;10.80;;;;;;;-2.08;100.00;101078.04;106744;1286;58270;-82
2023/12/14 06:50:45;;;;;;;38.20;10.80;;;;;;;-2.08;100.00;101076.58;106392;1285;58696;-82
2023/12/14 06:53:11;;;;;;;42.20;11.40;;;;;;;-2.07;100.00;101072.29;106689;1286;58363;-82
2023/12/14 06:55:37;;;;;;;33.40;12.60;;;;;;;-2.04;100.00;101055.45;106419;1285;58760;-82
2023/12/14 06:58:04;;;;;;;35.40;11.10;;;;;;;-1.99;100.00;101054.06;106845;1285;59842;-82
2023/12/14 07:00:29;;;;;;;34.10;11.20;;;;;;;-2.03;100.00;101048.62;106393;1286;74765;-82
2023/12/14 07:02:55;;;;;;;41.40;11.70;;;;;;;-1.97;100.00;101054.73;106818;1285;58229;-82
2023/12/14 07:05:21;;;;;;;35.40;11.50;;;;;;;-1.93;100.00;101066.34;106422;1286;58372;-82
2023/12/14 07:07:47;;;;;;;42.90;11.70;;;;;;;-1.95;100.00;101060.77;106834;1285;58590;-82
2023/12/14 07:10:13;;;;;;;36.20;12.20;;;;;;;-1.94;100.00;101056.94;106433;1289;58544;-82
2023/12/14 07:12:38;;;;;;;33.00;11.60;;;;;;;-1.89;100.00;101067.83;106855;1284;58246;-82
2023/12/14 07:15:05;;;;;;;32.20;12.30;;;;;;;-1.88;100.00;101061.98;106695;1286;72342;-82
2023/12/14 07:17:31;;;;;;;39.40;12.20;;;;;;;-1.82;100.00;101065.50;106813;1286;61767;-82
2023/12/14 07:19:57;;;;;;;36.80;12.00;;;;;;;-1.78;100.00;101064.75;106900;1285;58280;-82
2023/12/14 07:22:22;;;;;;;32.70;12.50;;;;;;;-1.80;100.00;101060.42;106896;1285;58476;-82
2023/12/14 07:24:48;;;;;;;34.70;12.30;;;;;;;-1.80;100.00;101060.72;106474;1285;58287;-82
2023/12/14 07:27:14;;;;;;;37.50;12.40;;;;;;;-1.69;100.00;101059.02;106846;1285;58587;-81
2023/12/14 07:29:39;;;;;;;36.40;11.70;;;;;;;-1.66;100.00;101064.98;106851;1285;60174;-81
2023/12/14 07:32:05;;;;;;;46.60;13.10;;;;;;;-1.63;100.00;101070.36;106519;1286;58556;-82
2023/12/14 07:34:31;;;;;;;36.80;13.80;;;;;;;-1.66;100.00;101069.02;106487;1288;58600;-82
2023/12/14 07:36:57;;;;;;;39.50;13.60;;;;;;;-1.71;100.00;101059.39;106492;1288;58200;-82
2023/12/14 07:39:23;;;;;;;38.20;13.10;;;;;;;-1.65;100.00;101047.81;106289;1288;58689;-82
2023/12/14 07:41:48;;;;;;;40.80;13.90;;;;;;;-1.63;100.00;101041.93;106224;1289;58402;-82
2023/12/14 07:44:14;;;;;;;39.10;13.00;;;;;;;-1.64;100.00;101041.20;106376;1288;73440;-82
2023/12/14 07:46:42;;;;;;;42.60;12.60;;;;;;;-1.66;100.00;101038.48;106171;1289;58369;-82
2023/12/14 07:49:08;;;;;;;39.20;13.60;;;;;;;-1.61;100.00;101042.98;106353;1288;62552;-82
2023/12/14 07:51:33;;;;;;;47.40;14.40;;;;;;;-1.48;100.00;101042.25;106507;1288;58387;-82
2023/12/14 07:53:59;;;;;;;44.50;12.60;;;;;;;-1.43;100.00;101047.01;106510;1288;58612;-82
2023/12/14 07:56:27;;;;;;;40.20;13.50;;;;;;;-1.42;100.00;101038.00;106248;1289;58669;-82
2023/12/14 07:58:53;;;;;;;43.70;14.40;;;;;;;-1.42;100.00;101031.23;106497;1288;58209;-82
2023/12/14 08:01:20;;;;;;;42.30;14.00;;;;;;;-1.47;100.00;101034.27;106375;1288;58497;-82
2023/12/14 08:03:46;;;;;;;37.60;13.10;;;;;;;-1.42;100.00;101046.66;106504;1288;58359;-82
2023/12/14 08:06:12;;;;;;;45.50;13.50;;;;;;;-1.34;100.00;101045.67;106596;1285;58430;-81
2023/12/14 08:08:37;;;;;;;42.20;12.90;;;;;;;-1.37;100.00;101042.29;106740;1285;58299;-82
2023/12/14 08:11:05;;;;;;;46.10;14.00;;;;;;;-1.37;100.00;101036.97;106711;1285;58242;-82
2023/12/14 08:13:30;;;;;;;46.00;14.70;;;;;;;-1.32;100.00;101036.29;106713;1285;58300;-82
2023/12/14 08:15:56;;;;;;;47.30;14.10;;;;;;;-1.27;100.00;101044.73;106726;1285;58323;-82
2023/12/14 08:18:22;;;;;;;47.70;13.90;;;;;;;-1.31;100.00;101039.70;106772;1285;58361;-82
2023/12/14 08:20:47;;;;;;;42.90;14.10;;;;;;;-1.30;100.00;101037.10;106679;1285;72555;-81
2023/12/14 08:23:13;;;;;;;54.60;15.30;;;;;;;-1.21;100.00;101038.56;106363;1285;58253;-82
2023/12/14 08:25:39;;;;;;;54.80;14.90;;;;;;;-1.11;100.00;101043.41;106717;1285;58359;-81
2023/12/14 08:28:05;;;;;;;44.80;14.60;;;;;;;-0.99;100.00;101043.79;106712;1285;58333;-81
2023/12/14 08:30:30;;;;;;;54.60;15.30;;;;;;;-0.91;100.00;101030.65;106738;1285;58362;-81
2023/12/14 08:32:56;;;;;;;49.80;14.40;;;;;;;-0.88;100.00;101024.05;106606;1285;58303;-81
2023/12/14 08:35:22;;;;;;;47.60;14.80;;;;;;;-0.84;100.00;101017.35;106729;1285;59004;-81
2023/12/14 08:37:47;;;;;;;50.50;15.10;;;;;;;-0.80;100.00;101014.19;106752;1285;58347;-81
2023/12/14 08:43:47;;;;;;;49.60;16.10;;;;;;;-0.66;100.00;100987.33;103560;1286;600321;-81
2023/12/14 08:46:13;;;;;;;51.60;15.60;;;;;;;-0.62;100.00;100985.98;103927;1288;60435;-81
2023/12/14 08:48:39;;;;;;;53.10;16.30;;;;;;;-0.62;100.00;100984.14;103821;1284;60365;-81
2023/12/14 08:51:05;;;;;;;48.90;14.60;;;;;;;-0.64;100.00;100980.54;103710;1285;60399;-81
2023/12/14 08:56:55;;;;;;;54.70;16.30;;;;;;;-0.50;100.00;100970.84;103102;1292;602180;-79
2023/12/14 08:59:37;;;;;;;48.80;15.50;;;;;;;-0.53;100.00;100965.77;103024;1293;600162;-80
2023/12/14 09:02:03;;;;;;;45.00;15.10;;;;;;;-0.48;100.00;100966.15;103293;1295;60842;-81
2023/12/14 09:04:29;;;;;;;46.20;14.90;;;;;;;-0.50;100.00;100963.79;103389;1295;60410;-81
2023/12/14 09:06:54;;;;;;;40.10;14.60;;;;;;;-0.49;100.00;100950.04;103310;1295;60428;-80
2023/12/14 09:09:20;;;;;;;47.00;13.80;;;;;;;-0.50;100.00;100940.86;103536;1295;60416;-81
2023/12/14 09:11:45;;;;;;;45.00;14.00;;;;;;;-0.48;100.00;100933.20;102859;1298;61429;-81
2023/12/14 09:14:11;;;;;;;41.20;13.70;;;;;;;-0.39;100.00;100927.77;100797;1294;3089955;-81
2023/12/14 09:16:37;;;;;;;41.00;14.10;;;;;;;-0.34;100.00;100921.20;102981;1289;60309;-81
2023/12/14 09:19:03;;;;;;;39.80;13.20;;;;;;;-0.30;100.00;100918.08;103027;1292;60550;-81
2023/12/14 09:21:32;;;;;;;37.90;13.10;;;;;;;-0.33;100.00;100909.81;103058;1294;60427;-81
2023/12/14 09:23:57;;;;;;;36.40;12.70;;;;;;;-0.31;100.00;100903.41;103115;1294;60419;-80
2023/12/14 09:26:43;;;;;;;37.10;14.10;;;;;;;-0.27;100.00;100901.48;102793;1291;600852;-81
2023/12/14 09:29:09;;;;;;;40.90;13.70;;;;;;;-0.28;100.00;100892.23;103004;1297;60396;-82
2023/12/14 09:31:35;;;;;;;34.90;13.30;;;;;;;-0.15;100.00;100897.61;102876;1293;60374;-81
2023/12/14 09:34:01;;;;;;;37.60;13.60;;;;;;;-0.11;100.00;100899.55;102970;1294;60422;-81
2023/12/14 09:36:27;;;;;;;37.80;13.00;;;;;;;-0.08;100.00;100903.58;103185;1294;60505;-81
2023/12/14 09:38:53;;;;;;;32.70;12.00;;;;;;;-0.03;100.00;100901.61;102886;1295;60410;-80
2023/12/14 09:41:23;;;;;;;33.10;12.10;;;;;;;0.05;100.00;100897.85;102963;1288;605803;-81
2023/12/14 09:43:59;;;;;;;39.00;12.50;;;;;;;0.07;100.00;100897.06;103221;1286;72486;-82
2023/12/14 09:46:30;;;;;;;39.40;14.60;;;;;;;0.13;100.00;100895.10;102835;1293;73212;-81
2023/12/14 09:49:00;;;;;;;38.70;12.80;;;;;;;0.20;100.00;100891.28;102697;1294;71407;-81
2023/12/14 09:51:26;;;;;;;37.30;11.80;;;;;;;0.22;100.00;100888.20;102549;1297;61865;-82
2023/12/14 09:53:57;;;;;;;33.70;13.10;;;;;;;0.34;100.00;100885.30;102615;1293;60327;-81
2023/12/14 09:56:28;;;;;;;33.00;12.10;;;;;;;0.41;100.00;100891.62;102307;1301;73176;-84
2023/12/14 09:58:56;;;;;;;39.00;12.60;;;;;;;0.38;100.00;100888.70;102168;1302;72218;-83
2023/12/14 10:01:37;;;;;;;33.20;13.00;;;;;;;0.41;100.00;100877.80;102127;1301;72511;-82
2023/12/14 10:07:26;;;;;;;34.70;11.20;;;;;;;0.54;100.00;100869.45;103081;1291;600949;-84
2023/12/14 10:09:55;;;;;;;28.20;11.20;;;;;;;0.56;100.00;100866.05;103036;1299;60874;-83
2023/12/14 10:12:24;;;;;;;33.80;11.90;;;;;;;0.59;100.00;100859.16;106031;1292;58841;-84
2023/12/14 10:15:06;;;;;;;31.70;11.70;;;;;;;0.63;100.00;100854.79;106005;1294;71815;-84
2023/12/14 10:17:34;;;;;;;32.00;10.80;;;;;;;0.64;100.00;100844.85;105941;1294;73333;-85
2023/12/14 10:20:03;;;;;;;26.70;10.00;;;;;;;0.67;100.00;100836.27;105040;1294;720433;-84
2023/12/14 10:22:32;;;;;;;31.40;11.20;;;;;;;0.78;100.00;100827.15;105680;1295;62073;-83
2023/12/14 10:25:09;;;;;;;27.10;10.10;;;;;;;0.84;100.00;100820.69;105849;1296;58852;-83
2023/12/14 10:27:40;;;;;;;25.10;10.50;;;;;;;0.84;100.00;100812.15;105648;1297;70675;-83
2023/12/14 10:30:12;;;;;;;27.40;10.90;;;;;;;0.88;100.00;100797.89;105371;1301;73430;-84
2023/12/14 10:32:38;;;;;;;22.00;9.00;;;;;;;0.92;100.00;100795.29;105357;1302;72492;-83
2023/12/14 10:35:04;;;;;;;21.80;8.80;;;;;;;0.91;100.00;100783.91;105142;1304;58542;-83
2023/12/14 10:37:32;;;;;;;18.40;8.20;;;;;;;0.94;100.00;100770.08;105127;1303;58226;-83
2023/12/14 10:40:05;;;;;;;20.40;7.80;;;;;;;0.92;100.00;100763.29;105392;1303;73840;-83
2023/12/14 10:42:34;;;;;;;19.30;7.60;;;;;;;0.91;100.00;100749.80;105368;1303;73564;-80
2023/12/14 10:45:02;;;;;;;16.20;7.10;;;;;;;0.94;100.00;100752.30;105123;1304;71137;-80
2023/12/14 10:47:28;;;;;;;20.90;7.10;;;;;;;0.93;100.00;100747.05;105391;1303;61189;-80
2023/12/14 10:49:57;;;;;;;16.20;7.30;;;;;;;0.91;100.00;100735.67;105395;1303;58239;-80
2023/12/14 10:52:28;;;;;;;14.10;6.40;;;;;;;0.89;100.00;100730.08;105402;1303;73116;-80
2023/12/14 10:55:03;;;;;;;19.20;8.00;;;;;;;0.89;100.00;100722.62;105297;1304;71983;-80
2023/12/14 10:57:37;;;;;;;14.20;6.40;;;;;;;0.93;100.00;100709.95;104990;1303;72680;-82
2023/12/14 11:00:10;;;;;;;13.80;6.10;;;;;;;0.90;100.00;100711.02;105250;1305;61093;-81
2023/12/14 11:03:00;;;;;;;19.30;7.10;;;;;;;0.93;100.00;100707.17;105150;1299;58944;-82
2023/12/14 11:05:29;;;;;;;16.70;6.00;;;;;;;0.95;100.00;100703.27;105405;1299;72965;-84